Terminal Aerodrome Forecast
Issued by NWS Sioux Falls, SD

Home | Current Version | Previous Version | Text Only | Print | Product List | Glossary Off
Versions: 1 2 3 4 5 6 7 8 9 10 11 12 13 14 15 16 17 18 19 20 21 22 23 24 25 26 27 28

000
FTUS43 KFSD 170550
TAFSUX
TAF
KSUX 170550Z 1706/1806 31015G23KT P6SM BKN035
     FM170900 32017G25KT P6SM OVC025
     FM171300 33020G29KT P6SM OVC018
     FM172000 33017G24KT P6SM BKN030
     FM180000 34011KT P6SM BKN035=

USA.gov is the U.S. government's official web portal to all federal, state and local government web resources and services.